Date,TemperatureHighF,TemperatureAvgF,TemperatureLowF,DewpointHighF,DewpointAvgF,DewpointLowF,HumidityHigh,HumidityAvg,HumidityLow,PressureMaxIn,PressureMinIn,WindSpeedMaxMPH,WindSpeedAvgMPH,GustSpeedMaxMPH,PrecipitationSumIn
2013-1-1,4,0,-2,-6,-9,-11,66,65,64,30.79,30.64,2,0,0,0.00
2013-1-2,16,1,-11,2,-9,-19,72,64,50,30.94,30.58,5,0,0,0.00
2013-1-3,19,-1,-14,-5,-12,-22,70,59,31,31.10,30.73,5,0,0,0.00
2013-1-4,27,12,-4,1,-2,-13,71,54,29,30.76,30.45,1,0,0,0.00
2013-1-5,26,10,-1,0,-3,-9,71,58,30,30.96,30.40,6,0,0,0.00
2013-1-6,7,2,-1,-2,-5,-8,73,70,63,30.98,30.69,0,0,0,0.00
2013-1-7,21,15,10,2,-6,-100,57,49,47,30.52,30.34,0,0,0,0.00
2013-1-8,38,17,-1,8,0,-10,69,51,26,30.70,30.25,4,0,0,0.00
2013-1-9,35,17,5,8,3,-2,74,56,29,30.87,30.42,0,0,0,0.00
2013-1-10,40,21,3,22,6,-6,87,56,20,30.46,29.66,12,2,0,0.04
2013-1-11,25,12,-8,21,2,-15,88,67,42,30.38,29.39,20,4,0,0.08
2013-1-12,7,-8,-22,-6,-18,-31,69,62,39,30.72,30.33,2,0,0,0.00
2013-1-13,9,-7,-18,-5,-16,-27,73,66,52,30.76,30.46,4,0,0,0.00
2013-1-14,11,-1,-6,0,-9,-13,73,69,59,30.58,30.37,1,0,0,0.01
2013-1-15,12,9,7,1,-4,-100,73,64,47,30.92,0.00,4,-38,0,0.00
2013-1-16,25,12,2,10,3,-4,82,70,46,30.87,30.57,6,0,0,0.00
2013-1-17,33,16,6,14,8,1,82,71,45,30.97,30.64,4,0,0,0.00
2013-1-18,32,15,3,12,6,-3,81,69,42,30.93,30.55,1,0,0,0.00
2013-1-19,40,16,2,8,2,-5,75,59,25,30.94,30.50,7,0,0,0.00
2013-1-20,38,15,1,6,0,-6,76,56,19,30.85,30.45,1,0,0,0.00
2013-1-21,43,20,4,9,4,-3,74,52,21,30.81,30.41,5,0,0,0.00
2013-1-22,40,20,8,7,1,-3,63,47,20,30.77,30.46,1,0,0,0.00
2013-1-23,42,20,4,7,-2,-7,61,41,16,30.95,30.52,0,0,0,0.00
2013-1-24,48,37,23,21,15,5,72,43,25,30.56,30.19,10,2,0,0.00
2013-1-25,40,29,25,24,20,18,80,71,51,30.37,30.21,0,0,0,0.00
2013-1-26,34,29,24,30,23,-100,90,84,76,30.27,29.86,0,0,0,0.28
2013-1-27,40,32,25,30,25,19,91,76,55,29.99,29.82,12,2,0,0.05
2013-1-28,34,28,19,28,23,12,90,79,62,29.83,29.64,14,2,0,0.29
2013-1-29,20,15,9,14,4,-10,83,65,32,30.06,29.77,14,1,0,0.06
2013-1-30,29,21,14,9,7,5,66,56,40,30.50,30.30,10,3,0,0.00
2013-1-31,41,24,11,14,7,1,71,52,19,30.55,30.25,5,1,0,0.00
2013-2-1,36,14,4,12,4,-1,80,70,36,30.63,30.34,0,0,0,0.00
2013-2-2,37,29,17,11,8,4,67,44,27,30.82,30.57,2,0,0,0.00
2013-2-3,38,24,9,21,11,2,75,60,27,30.63,30.16,5,0,0,0.00
2013-2-4,39,24,7,15,8,-1,71,54,26,30.47,30.09,9,0,0,0.00
2013-2-5,41,24,11,14,8,2,71,52,26,30.48,30.11,7,0,0,0.00
2013-2-6,40,25,11,23,13,5,79,64,33,30.31,29.96,4,0,0,0.00
2013-2-7,22,15,11,14,8,3,79,74,70,30.43,30.09,6,1,0,0.00
2013-2-8,34,31,29,21,11,-100,71,56,38,30.11,29.73,14,2,0,0.00
2013-2-9,33,22,13,19,12,3,85,65,41,29.92,29.58,9,2,0,0.04
2013-2-10,24,13,1,12,4,-5,79,67,44,30.31,29.90,11,1,0,0.00
2013-2-11,22,15,1,12,5,-7,81,67,45,30.40,30.10,12,2,0,0.10
2013-2-12,31,8,-9,3,-7,-16,71,54,19,30.72,30.34,4,0,0,0.00
2013-2-16,45,32,18,10,4,-1,49,33,15,30.59,30.28,5,0,0,0.00
2013-2-17,43,23,5,5,-1,-11,65,40,10,30.42,29.82,15,2,0,0.00
2013-2-18,35,19,10,4,-3,-18,69,42,11,30.36,29.78,7,1,0,0.00
2013-2-19,32,15,-3,4,-4,-13,64,47,25,30.57,29.94,5,0,0,0.00
2013-2-20,18,15,13,6,-22,-100,73,46,56,29.93,29.58,5,1,0,0.00
2013-2-21,32,17,6,15,7,-1,79,65,37,30.11,29.78,6,1,0,0.00
2013-2-22,25,13,2,14,5,-4,84,71,48,30.39,30.00,9,0,0,0.10
2013-2-23,28,12,-5,16,2,-13,84,67,45,30.53,29.82,5,0,0,0.02
2013-2-24,27,17,4,15,3,-7,85,56,26,30.30,29.76,5,0,0,0.00
2013-2-25,40,18,0,6,-3,-11,73,46,12,30.44,29.98,11,1,0,0.00
2013-2-26,27,16,4,9,-1,-7,77,50,25,30.42,29.91,13,1,0,0.00
2013-2-27,30,12,-5,1,-6,-14,66,48,20,30.77,30.40,4,0,0,0.00
2013-2-28,36,19,-2,5,-4,-12,64,41,17,30.87,30.45,7,1,0,0.00
2013-3-1,28,25,23,10,9,8,54,50,46,30.48,30.42,0,0,0,0.00
2013-3-2,52,33,15,19,11,5,67,45,18,30.72,30.18,7,1,0,0.00
2013-3-3,49,36,25,24,16,-100,71,48,26,30.18,29.73,10,-9,0,0.00
2013-3-4,43,34,21,27,19,4,82,57,29,30.26,29.70,13,2,0,0.01
2013-3-5,41,24,6,13,4,-4,64,44,27,30.64,30.25,4,0,0,0.00
2013-3-6,47,31,16,18,10,4,69,46,22,30.44,30.05,19,2,0,0.00
2013-3-7,50,42,28,15,9,2,57,29,15,30.16,29.95,15,3,0,0.00
2013-3-8,43,28,19,29,18,10,89,68,31,30.13,29.71,16,2,0,0.08
2013-3-9,26,23,17,23,16,10,88,73,57,30.19,29.68,9,2,0,0.02
2013-3-10,42,24,6,12,6,1,79,53,22,30.46,30.16,4,0,0,0.00
2013-3-11,47,28,12,20,12,5,72,52,25,30.42,30.04,4,0,0,0.00
2013-3-12,49,28,20,15,12,10,65,52,25,30.36,30.07,9,1,0,0.00
2013-3-18,45,35,31,8,-2,-100,36,24,11,30.05,29.87,16,4,0,0.00
2013-3-19,48,34,26,10,6,0,47,32,14,30.28,29.96,11,1,0,0.00
2013-3-20,46,27,15,16,8,6,72,49,23,30.43,30.03,10,1,0,0.00
2013-3-21,47,40,27,26,11,4,61,32,18,29.81,29.52,17,4,0,0.00
2013-3-22,27,21,16,10,6,4,68,55,45,29.92,29.78,0,0,0,0.00
2013-3-23,23,18,8,0,-8,-15,54,34,19,30.42,29.72,13,3,0,0.00
2013-3-24,32,15,1,2,-8,-13,55,38,19,30.49,30.17,12,2,0,0.00
2013-3-25,38,17,2,2,-5,-13,62,41,13,30.53,30.23,7,1,0,0.00
2013-3-26,48,32,19,13,8,0,58,38,20,30.34,29.91,14,1,0,0.00
2013-3-27,52,36,27,22,17,8,68,50,20,30.15,29.87,13,1,0,0.00
2013-3-29,41,36,33,24,22,21,60,57,49,30.23,30.13,3,1,0,0.00
2013-3-30,54,40,26,23,18,12,71,47,19,30.31,29.99,15,1,0,0.00
2013-3-31,58,42,28,23,18,9,71,45,16,30.23,29.91,13,1,0,0.00
2013-4-3,37,30,32,16,2,-100,53,42,40,30.25,0.00,0,-111,0,0.00
2013-4-4,61,42,24,19,14,6,69,38,12,30.33,29.96,13,2,0,0.00
2013-4-5,57,43,30,24,17,9,57,38,17,30.04,29.73,14,3,0,0.00
2013-4-6,58,44,28,24,17,10,69,40,17,30.01,29.73,15,2,0,0.00
2013-4-7,56,43,28,22,15,11,65,36,17,29.88,29.66,16,2,0,0.00
2013-4-8,52,40,29,30,16,-100,89,43,17,29.71,29.28,18,-21,0,0.01
2013-4-9,32,28,22,30,25,18,90,86,79,29.95,29.29,3,0,0,0.50
2013-4-10,38,26,17,27,18,11,84,75,47,30.11,29.89,6,1,0,0.06
2013-4-11,45,30,14,27,17,6,78,62,40,30.13,29.90,9,1,0,0.00
2013-4-12,51,34,21,27,19,13,77,59,23,30.08,29.85,12,1,0,0.00
2013-4-13,53,41,25,26,18,11,76,45,20,29.97,29.36,23,5,0,0.00
2013-4-14,52,42,30,32,22,14,86,49,25,29.66,29.31,22,5,0,0.02
2013-4-15,54,45,38,26,21,14,61,40,24,29.59,29.38,18,6,0,0.00
2013-4-16,58,47,39,21,14,4,44,29,13,29.58,29.37,24,7,0,0.00
2013-4-17,44,32,22,29,18,1,88,60,29,30.00,29.45,13,2,0,0.06
2013-4-18,32,22,10,14,-1,-8,71,40,21,30.48,29.98,10,2,0,0.00
2013-4-19,50,30,12,10,4,-3,60,36,19,30.53,29.97,15,2,0,0.00
2013-4-20,46,35,26,31,20,11,87,57,28,30.06,29.86,9,1,0,0.02
2013-4-21,56,39,23,24,14,7,79,44,17,30.27,29.95,19,2,0,0.00
2013-4-22,60,45,28,25,16,9,68,36,15,29.93,29.62,30,3,0,0.00
2013-4-23,48,35,26,25,11,-10,64,41,9,30.16,29.62,17,2,0,0.00
2013-4-24,54,37,20,12,6,-4,58,31,12,30.26,30.03,14,1,0,0.00
2013-4-25,56,40,27,34,19,11,84,48,20,30.15,29.83,17,2,0,0.02
2013-4-26,56,42,29,30,22,10,82,52,18,30.25,29.90,10,1,0,0.00
2013-4-27,64,44,27,22,14,3,72,38,9,30.35,30.01,8,1,0,0.00
2013-4-28,67,48,27,19,14,9,57,30,11,30.18,29.79,11,1,0,0.00
2013-4-29,68,52,35,23,18,11,56,30,11,29.85,29.55,17,2,0,0.00
2013-4-30,67,55,40,21,16,9,42,23,12,29.62,29.44,24,4,0,0.00
2013-5-1,58,49,29,21,10,-5,51,23,8,30.21,29.44,27,5,0,0.00
2013-5-2,55,35,19,13,4,-6,68,33,8,30.54,30.19,11,1,0,0.00
2013-5-3,62,42,20,13,8,2,53,28,11,30.41,29.87,12,1,0,0.00
2013-5-4,61,44,26,17,12,8,54,31,14,30.02,29.83,10,1,0,0.00
2013-5-5,58,44,30,29,20,14,63,41,22,30.09,29.86,19,2,0,0.00
2013-5-6,46,40,33,42,32,28,91,77,61,30.05,29.86,10,1,0,0.28
2013-5-7,56,44,32,34,26,14,90,55,22,30.07,29.81,17,3,0,0.00
2013-5-8,50,40,31,32,25,16,88,58,30,30.09,29.79,17,2,0,0.05
2013-5-9,52,40,32,34,27,23,85,62,34,30.19,29.96,16,1,0,0.00
2013-5-10,55,40,28,34,27,22,84,63,30,30.29,30.07,5,0,0,0.00
2013-5-11,60,44,29,30,25,18,87,54,20,30.44,30.18,12,1,0,0.00
2013-5-12,65,49,31,30,26,21,78,45,19,30.34,30.02,6,1,0,0.00
2013-5-13,71,52,34,35,29,25,72,45,18,30.25,29.94,11,1,0,0.00
2013-5-14,71,52,35,42,32,26,81,52,20,30.11,29.81,13,1,0,0.01
2013-5-15,66,50,42,40,36,30,79,62,26,29.95,29.74,9,1,0,0.01
2013-5-16,71,53,32,35,25,17,78,41,16,29.98,29.68,15,2,0,0.00
2013-5-17,67,54,36,23,14,2,52,25,8,29.91,29.66,17,4,0,0.00
2013-5-18,62,48,34,24,19,12,58,34,17,29.89,29.70,18,2,0,0.00
2013-5-19,54,40,29,29,23,18,71,52,27,29.94,29.73,14,2,0,0.00
2013-5-20,55,40,26,35,24,16,88,58,23,30.07,29.85,10,1,0,0.04
2013-5-21,62,47,31,31,26,19,88,50,22,30.15,29.73,16,2,0,0.00
2013-5-22,71,54,35,28,21,12,64,33,11,29.85,29.64,24,2,0,0.00
2013-5-23,74,55,34,25,19,9,63,29,10,29.91,29.66,18,3,0,0.00
2013-5-24,70,55,37,21,16,12,45,24,11,29.89,29.71,22,5,0,0.00
2013-5-25,71,54,34,21,14,6,53,25,9,30.01,29.76,21,4,0,0.00
2013-5-26,70,54,36,20,13,4,46,23,8,29.94,29.74,16,3,0,0.00
2013-5-27,67,53,34,18,14,11,46,24,11,29.86,29.63,23,3,0,0.00
2013-5-28,68,51,33,19,13,3,50,25,9,29.78,29.49,17,2,0,0.00
2013-5-29,60,50,40,31,21,14,62,34,21,29.68,29.42,23,1,0,0.00
2013-5-30,66,51,34,24,18,12,56,32,13,29.76,29.59,20,4,0,0.00
2013-5-31,66,51,32,21,11,-4,56,25,7,29.92,29.73,20,3,0,0.00
2013-6-1,72,52,30,20,12,4,42,23,8,30.13,29.85,4,0,0,0.00
2013-6-2,75,56,32,26,19,12,49,26,12,30.04,29.67,20,2,0,0.00
2013-6-3,74,57,42,34,28,22,56,35,14,29.90,29.61,14,1,0,0.00
2013-6-4,74,56,38,34,27,21,62,36,15,29.96,29.71,11,1,0,0.00
2013-6-5,75,58,39,29,23,14,58,30,10,29.86,29.62,16,2,0,0.00
2013-6-6,74,55,37,30,24,20,56,34,14,29.93,29.70,6,0,0,0.00
2013-6-7,71,53,36,38,30,24,70,44,21,30.01,29.68,9,0,0,0.00
2013-6-8,83,62,38,32,25,18,68,32,10,29.83,29.54,11,1,0,0.00
2013-6-9,87,66,43,30,24,12,53,25,7,29.83,29.63,6,1,0,0.00
2013-6-10,85,66,43,30,24,19,53,24,9,29.89,29.61,12,2,0,0.00
2013-6-11,80,65,45,27,17,9,45,19,7,29.79,29.65,16,4,0,0.00
2013-6-12,81,62,41,24,18,11,45,21,8,30.02,29.80,17,2,0,0.00
2013-6-13,82,65,44,33,24,17,46,24,12,29.96,29.68,18,3,0,0.00
2013-6-14,78,66,50,36,28,17,55,28,11,29.80,29.57,14,2,0,0.00
2013-6-15,76,61,41,30,23,16,48,26,12,29.90,29.70,13,2,0,0.00
2013-6-16,73,59,43,37,31,26,63,38,18,29.98,29.76,14,2,0,0.00
2013-6-17,75,58,41,34,30,20,66,40,14,30.04,29.79,20,1,0,0.00
2013-6-18,76,59,40,42,28,8,72,37,9,30.03,29.66,17,2,0,0.00
2013-6-19,74,59,38,21,10,1,42,17,6,29.81,29.51,24,3,0,0.00
2013-6-20,73,60,41,17,10,3,33,15,7,29.80,29.60,22,4,0,0.00
2013-6-21,73,58,40,21,16,11,40,20,11,29.88,29.62,26,3,0,0.00
2013-6-22,73,60,40,23,16,10,44,21,10,29.85,29.62,22,3,0,0.00
2013-6-23,78,60,38,20,14,7,45,20,8,29.87,29.62,25,4,0,0.00
2013-6-24,73,58,40,20,13,7,40,19,8,29.82,29.65,25,3,0,0.00
2013-6-25,77,64,49,28,21,12,32,20,15,29.82,29.67,16,2,0,0.00
2013-6-26,86,66,44,32,28,24,54,27,11,29.97,29.71,10,1,0,0.00
2013-6-27,88,67,49,33,30,26,48,27,11,30.01,29.79,10,1,0,0.00
2013-6-28,85,62,48,53,39,31,76,47,17,30.13,29.82,14,0,0,0.11
2013-6-29,75,59,46,51,42,31,88,59,20,30.16,29.84,12,1,0,0.12
2013-6-30,80,57,42,51,42,30,90,66,17,30.17,29.76,11,1,0,0.11
2013-7-1,80,60,42,47,41,34,89,58,20,30.20,29.81,11,1,0,0.00
2013-7-2,78,60,45,53,43,38,88,61,24,30.07,29.77,11,0,0,0.10
2013-7-3,78,60,43,47,39,27,87,55,16,30.03,29.70,6,1,0,0.00
2013-7-4,82,63,49,46,39,32,70,45,18,29.92,29.62,7,1,0,0.03
2013-7-5,77,59,53,53,46,39,87,67,28,29.81,29.58,7,1,0,0.13
2013-7-6,76,59,52,53,46,38,88,64,27,29.89,29.68,6,1,0,0.21
2013-7-7,81,62,50,49,44,38,77,57,24,29.95,29.67,6,0,0,0.00
2013-7-8,75,58,49,55,49,46,87,72,39,30.05,29.82,4,0,0,0.14
2013-7-9,83,64,48,51,44,34,84,53,18,30.14,29.82,7,1,0,0.00
2013-7-10,78,62,50,55,45,41,87,55,28,30.07,29.78,11,1,0,0.12
2013-7-11,78,58,46,55,46,41,84,66,30,30.06,29.74,10,2,0,0.07
2013-7-12,76,60,48,52,48,45,87,66,33,29.96,29.72,9,1,0,0.01
2013-7-13,78,62,50,54,47,42,91,63,29,29.98,29.76,14,1,0,0.33
2013-7-14,75,60,50,55,50,44,91,73,34,30.07,29.79,11,1,0,0.03
2013-7-15,68,57,49,54,50,46,90,79,52,30.01,29.82,4,0,0,0.06
2013-7-16,74,58,44,51,43,36,90,63,26,30.04,29.89,6,0,0,0.00
2013-7-17,78,59,45,45,41,33,82,57,20,30.10,29.87,8,1,0,0.00
2013-7-18,80,62,50,52,45,38,90,58,24,30.03,29.71,10,1,0,0.06
2013-7-19,74,57,50,53,49,45,89,75,45,30.05,29.82,12,1,0,0.00
2013-7-20,79,62,48,50,44,36,88,59,22,29.97,29.66,10,1,0,0.00
2013-7-21,83,64,48,46,41,31,77,47,16,29.86,29.63,7,1,0,0.00
2013-7-22,82,65,51,42,39,32,67,41,17,29.89,29.66,8,1,0,0.00
2013-7-23,84,65,46,41,37,30,71,40,14,29.94,29.70,10,1,0,0.00
2013-7-24,74,62,54,52,43,35,83,53,25,30.02,29.75,5,0,0,0.04
2013-7-25,83,64,49,50,44,33,86,54,18,30.00,29.73,11,1,0,0.00
2013-7-26,79,62,49,52,45,39,80,57,27,30.05,29.85,9,1,0,0.03
2013-7-27,74,58,53,52,47,42,91,68,34,30.00,29.76,6,1,0,0.20
2013-7-28,68,56,49,53,50,45,92,80,52,29.87,29.68,9,1,0,0.51
2013-7-29,71,56,47,53,47,42,91,74,40,30.04,29.80,11,1,0,0.09
2013-7-30,76,59,41,46,39,29,88,55,20,30.26,29.99,13,0,0,0.00
2013-7-31,82,63,44,43,37,32,77,43,17,30.20,29.86,7,1,0,0.00
2013-8-1,71,58,49,52,45,37,90,64,43,30.01,29.85,6,1,0,0.06
2013-8-2,76,58,49,51,47,42,90,69,31,30.09,29.79,9,1,0,0.13
2013-8-3,78,59,51,52,47,42,89,69,31,30.07,29.79,11,1,0,0.08
2013-8-4,77,58,43,53,46,38,91,68,27,30.21,29.88,12,0,0,0.01
2013-8-5,71,57,50,53,48,45,88,74,44,30.03,29.82,9,0,0,0.12
2013-8-6,72,58,49,51,47,42,91,70,40,29.99,29.81,5,0,0,0.60
2013-8-7,60,51,47,54,48,44,92,89,74,30.02,29.86,4,0,0,0.68
2013-8-8,68,53,46,49,44,39,90,72,37,30.07,29.85,17,1,0,0.00
2013-8-9,66,52,41,48,43,37,86,73,50,30.18,29.95,3,0,0,0.06
2013-8-10,74,53,41,47,41,34,90,68,24,30.41,29.90,9,1,0,0.29
2013-8-11,73,55,40,48,40,33,92,63,24,30.32,29.93,4,0,0,0.00
2013-8-12,71,53,42,51,44,37,91,72,38,30.14,29.90,7,0,0,0.17
2013-8-13,65,53,40,51,44,38,92,73,45,30.25,29.99,10,1,0,0.00
2013-8-14,72,56,41,45,38,32,85,56,23,30.21,29.93,13,1,0,0.00
2013-8-15,76,58,40,40,35,26,77,47,16,30.16,29.92,15,1,0,0.00
2013-8-16,81,61,41,40,33,23,75,42,13,30.16,29.90,8,1,0,0.00
2013-8-17,80,63,48,44,36,28,66,41,16,30.07,29.80,6,0,0,0.00
2013-8-18,75,58,48,55,43,37,84,59,27,30.02,29.83,5,0,0,0.10
2013-8-19,80,61,47,51,44,32,90,60,18,30.11,29.78,5,0,0,0.29
2013-8-20,73,58,45,53,46,41,89,67,37,30.12,29.83,15,0,0,0.01
2013-8-21,78,59,48,51,44,40,83,62,27,30.06,29.81,6,0,0,0.02
2013-8-22,79,64,49,49,45,40,85,54,25,30.11,29.77,10,1,0,0.00
2013-8-23,77,62,50,50,42,26,86,53,18,29.96,29.71,7,1,0,0.01
2013-8-24,70,59,49,50,46,42,89,65,40,29.99,29.78,13,1,0,0.14
2013-8-25,65,56,50,54,51,48,92,83,55,30.08,29.96,11,1,0,0.38
2013-8-26,74,61,50,54,48,43,91,67,34,30.13,29.87,12,2,0,0.02
2013-8-27,75,60,47,50,47,40,88,64,29,30.06,29.81,4,0,0,0.00
2013-8-28,79,61,46,51,45,39,87,60,25,30.05,29.79,6,0,0,0.00
2013-8-29,79,60,46,51,45,40,86,60,26,30.13,29.88,6,1,0,0.00
2013-8-30,82,64,53,48,43,34,71,51,20,30.07,29.77,15,1,0,0.00
2013-8-31,80,62,52,52,45,40,77,57,25,29.99,29.73,5,0,0,0.04
2013-9-1,80,62,47,49,45,36,81,57,20,30.05,29.73,5,0,0,0.00
2013-9-2,76,58,48,54,49,43,90,74,37,30.04,29.81,5,0,0,0.08
2013-9-3,76,60,45,50,46,42,90,64,30,30.17,29.88,7,0,0,0.00
2013-9-4,79,62,51,55,49,44,80,64,30,30.08,29.84,4,0,0,0.02
2013-9-5,81,62,46,48,43,35,79,54,19,30.19,29.85,6,0,0,0.00
2013-9-6,81,62,44,42,38,32,72,46,17,30.17,29.81,13,1,0,0.00
2013-9-7,78,61,44,46,40,35,74,50,22,30.10,29.77,5,0,0,0.00
2013-9-8,75,61,48,45,42,36,75,51,26,29.96,29.65,11,1,0,0.00
2013-9-9,72,59,49,49,44,40,88,60,35,29.84,29.65,11,1,0,0.00
2013-9-10,60,53,46,52,46,40,91,79,59,30.00,29.68,5,0,0,0.30
2013-9-11,67,56,49,52,49,43,91,78,52,30.00,29.81,5,0,0,0.00
2013-9-12,64,52,44,52,47,40,91,83,63,30.11,29.86,2,0,0,0.49
2013-9-13,62,54,48,52,49,46,92,83,63,29.95,29.75,3,0,0,0.19
2013-9-14,63,51,46,48,44,41,91,79,50,29.95,29.75,14,1,0,0.12
2013-9-15,66,52,44,48,43,40,90,73,44,30.05,29.85,3,0,0,0.07
2013-9-16,68,53,43,50,45,39,91,77,40,30.14,29.87,5,0,0,0.02
2013-9-17,68,54,41,47,42,38,91,68,37,30.14,29.73,15,1,0,0.00
2013-9-18,67,53,46,50,46,42,92,78,45,29.95,29.66,15,1,0,0.55
2013-9-19,68,51,38,50,42,35,91,75,36,30.06,29.79,9,0,0,0.04
2013-9-20,70,52,37,48,37,31,89,61,26,30.14,29.84,6,0,0,0.00
2013-9-21,70,53,39,44,36,32,87,56,25,30.07,29.69,11,1,0,0.00
2013-9-22,58,46,34,47,42,32,92,84,62,29.78,29.55,7,0,0,0.77
2013-9-23,59,45,36,33,28,21,85,56,24,30.17,29.61,9,1,0,0.00
2013-9-24,68,46,28,36,27,18,85,54,16,30.39,29.93,7,1,0,0.00
2013-9-25,66,51,35,33,28,21,76,45,23,29.96,29.47,29,5,0,1.21
2013-9-26,64,56,48,27,19,14,35,25,15,29.62,29.48,18,4,0,1.67
2013-9-27,55,40,29,40,33,24,91,78,35,30.16,29.54,10,1,0,0.33
2013-9-28,60,39,24,30,23,17,83,56,27,30.42,30.12,8,0,0,0.00
2013-9-29,64,45,28,29,24,16,79,49,18,30.34,29.94,15,1,0,0.00
2013-9-30,71,50,33,33,27,21,68,43,22,30.13,29.76,9,0,0,0.00
2013-10-1,70,51,32,35,26,16,81,46,13,30.13,29.79,11,0,0,0.00
2013-10-2,66,49,31,25,21,17,68,39,18,30.11,29.79,12,1,0,0.00
2013-10-3,59,47,31,31,24,20,72,44,26,29.92,29.49,24,4,0,0.00
2013-10-4,52,40,28,27,13,-1,61,35,17,30.19,29.46,14,3,0,0.00
2013-10-5,55,37,24,15,9,1,59,36,11,30.45,30.12,6,0,0,0.00
2013-10-6,63,40,22,21,12,3,52,35,14,30.55,30.15,3,0,0,0.00
2013-10-7,69,46,28,28,21,19,72,43,17,30.42,29.95,5,0,0,0.00
2013-10-8,61,46,34,27,22,19,61,42,20,30.05,29.75,17,2,0,0.00
2013-10-9,58,44,29,34,24,19,79,51,23,30.01,29.77,15,2,0,0.00
2013-10-10,50,37,28,34,29,23,91,74,35,29.89,29.62,12,1,0,0.25
2013-10-11,46,36,29,31,26,21,79,67,51,30.15,29.87,9,2,0,0.00
2013-10-12,52,36,23,27,22,14,84,62,25,30.36,30.07,14,1,0,0.00
2013-10-13,55,39,28,39,31,24,91,74,43,30.30,29.82,16,1,0,0.08
2013-10-14,47,40,31,37,23,20,91,52,36,30.15,29.74,17,3,0,0.00
2013-10-15,45,33,22,29,20,13,88,64,29,30.30,30.04,10,1,0,0.02
2013-10-16,46,34,26,29,22,11,89,66,24,30.26,30.00,10,0,0,0.03
2013-10-17,51,34,19,22,17,14,81,55,28,30.36,29.95,18,1,0,0.00
2013-10-18,48,33,23,17,10,-1,68,42,15,30.34,29.93,7,0,0,0.00
2013-10-19,57,37,22,17,12,7,61,40,16,30.43,30.00,5,0,0,0.00
2013-10-20,54,37,23,25,17,12,66,48,19,30.20,29.85,7,0,0,0.00
2013-10-21,56,37,25,20,14,4,72,44,14,30.33,29.95,7,0,0,0.00
2013-10-22,58,39,23,21,16,11,62,42,20,30.48,30.10,3,0,0,0.00
2013-10-23,61,40,24,22,18,15,69,45,19,30.39,30.06,2,0,0,0.00
2013-10-24,61,43,26,21,18,13,65,40,17,30.34,30.05,11,1,0,0.00
2013-10-25,54,42,37,35,30,21,88,63,35,30.23,29.99,5,0,0,0.02
2013-10-26,56,40,30,34,28,22,89,68,27,30.45,30.15,4,0,0,0.00
2013-10-27,54,38,27,30,25,23,88,63,32,30.32,29.86,10,1,0,0.00
2013-10-28,51,41,29,29,22,17,85,51,26,29.96,29.79,24,3,0,0.00
2013-10-29,43,37,32,31,26,16,91,66,37,29.96,29.79,12,1,0,0.15
2013-10-30,36,29,20,28,20,16,84,71,51,30.12,29.87,12,1,0,0.01
2013-10-31,43,29,21,22,16,12,74,59,32,30.22,29.97,13,2,0,0.00
2013-11-1,48,33,22,17,13,6,74,50,18,30.46,30.10,6,1,0,0.00
2013-11-2,58,34,18,15,11,7,66,42,13,30.59,30.04,4,0,0,0.00
2013-11-3,45,37,28,25,19,10,64,48,32,30.04,29.70,16,2,0,0.00
2013-11-4,45,35,21,28,16,9,74,49,27,30.04,29.72,20,2,0,0.00
2013-11-5,37,28,12,30,20,2,90,71,42,30.45,29.71,17,1,0,0.03
2013-11-6,46,25,8,14,8,0,74,51,22,30.78,30.43,6,0,0,0.00
2013-11-7,50,32,16,15,12,9,76,49,23,30.81,30.18,6,0,0,0.00
2013-11-8,55,42,28,17,14,11,60,34,18,30.18,29.88,13,2,0,0.00
2013-11-9,56,36,23,18,15,13,66,46,19,30.43,30.06,7,0,0,0.00
2013-11-10,58,37,22,19,15,12,73,47,17,30.54,30.18,12,0,0,0.00
2013-11-11,58,36,21,16,13,7,71,44,14,30.66,30.24,6,0,0,0.00
2013-11-12,56,35,22,17,14,11,68,46,18,30.79,30.40,2,0,0,0.00
2013-11-13,52,35,20,20,16,13,75,50,21,30.68,30.02,5,0,0,0.00
2013-11-14,53,37,27,22,18,3,69,49,14,30.20,29.83,10,0,0,0.00
2013-11-15,44,34,26,30,21,14,90,60,40,29.92,29.60,17,2,0,0.13
2013-11-16,36,32,29,29,25,21,90,76,54,29.72,29.55,12,2,0,0.07
2013-11-17,42,33,23,26,22,16,76,65,49,30.30,29.65,14,2,0,0.00
2013-11-18,46,27,14,23,15,9,81,64,28,30.59,30.24,1,0,0,0.00
2013-11-19,48,32,18,25,20,12,80,62,31,30.32,29.82,10,1,0,0.00
2013-11-20,47,35,27,30,24,19,85,68,37,30.02,29.75,8,0,0,0.00
2013-11-21,39,32,27,31,27,24,89,82,55,30.21,29.82,9,1,0,0.06
2013-11-22,32,28,26,30,25,23,90,87,84,30.48,30.12,0,0,0,0.56
2013-11-23,31,27,24,25,23,20,88,84,78,30.52,30.37,0,0,0,0.33
2013-11-24,30,24,21,24,20,17,87,83,73,30.39,30.08,0,0,0,0.10
2013-11-25,40,25,16,29,18,11,85,76,50,30.56,30.06,4,0,0,0.02
2013-11-26,32,18,8,19,11,3,82,75,53,30.82,30.47,3,0,0,0.00
2013-11-27,32,16,5,15,9,0,84,73,49,30.84,30.49,4,0,0,0.00
2013-11-28,37,22,9,18,13,4,81,69,44,30.70,30.38,3,0,0,0.00
2013-11-29,32,19,10,16,11,5,84,73,50,30.75,30.47,4,0,0,0.00
2013-11-30,34,19,9,17,11,3,83,73,49,30.81,30.50,2,0,0,0.00
2013-12-1,34,20,8,17,12,3,85,72,44,30.74,30.25,3,0,0,0.00
2013-12-2,46,31,20,20,16,11,75,56,27,30.35,29.77,6,1,0,0.00
2013-12-3,38,32,28,27,19,14,89,59,41,29.79,29.48,16,3,0,0.08
2013-12-4,31,24,10,26,17,0,90,75,53,29.99,29.38,16,3,0,0.14
2013-12-5,20,8,-5,3,-3,-12,75,61,42,30.35,30.00,12,1,0,0.00
2013-12-6,16,7,-5,2,-4,-12,77,61,42,30.56,30.18,6,1,0,0.00
2013-12-7,21,10,-4,13,2,-12,84,71,40,30.51,29.80,13,1,0,0.06
2013-12-8,18,11,-5,14,-2,-15,84,58,30,30.40,29.78,13,2,0,0.01
2013-12-9,17,-2,-16,-11,-17,-24,70,53,19,31.10,30.42,12,1,0,0.00
2013-12-10,21,1,-14,-3,-12,-22,77,57,28,31.15,30.71,3,0,0,0.00
2013-12-11,28,10,-1,4,-1,-8,78,64,34,31.08,30.70,2,0,0,0.00
2013-12-12,33,13,-1,9,2,-7,79,64,29,31.14,30.45,0,0,0,0.00
2013-12-13,40,18,3,12,4,-3,82,61,22,30.47,30.07,5,0,0,0.00
2013-12-14,36,16,7,9,3,-2,73,59,27,30.87,30.21,0,0,0,0.00
2013-12-15,42,20,6,16,8,1,82,61,33,30.85,30.42,5,0,0,0.00
2013-12-16,46,26,13,15,10,5,77,54,24,30.76,30.37,4,0,0,0.00
2013-12-17,43,22,9,12,6,1,69,54,23,30.89,30.48,0,0,0,0.00
2013-12-18,38,24,12,14,9,4,71,55,33,30.59,30.01,4,0,0,0.00
2013-12-19,39,29,13,19,14,7,76,56,34,30.04,29.73,20,3,0,0.00
2013-12-20,34,25,15,22,17,9,83,72,54,29.94,29.72,14,1,0,0.00
2013-12-21,30,16,4,14,6,-2,81,66,40,30.09,29.71,5,0,0,0.00
2013-12-22,28,14,3,8,1,-6,74,57,32,30.68,30.04,12,0,0,0.00
2013-12-23,31,16,7,7,2,-3,73,56,34,30.90,30.49,3,0,0,0.00
2013-12-24,42,20,6,14,6,1,83,60,25,30.78,30.28,7,0,0,0.00
2013-12-25,32,14,2,2,-3,-10,62,48,24,30.93,30.51,4,0,0,0.00
2013-12-26,39,18,4,10,3,-5,69,54,26,30.93,30.49,1,0,0,0.00
2013-12-27,36,20,9,12,8,3,77,61,37,30.80,30.43,2,0,0,0.00
2013-12-28,36,20,9,16,10,4,82,68,43,30.50,30.11,4,0,0,0.01
2013-12-29,33,21,10,21,15,5,85,78,59,30.44,30.05,3,0,0,0.05
2013-12-30,34,16,3,11,5,-4,80,65,37,30.81,30.34,0,0,0,0.00
2013-12-31,45,19,5,18,7,0,81,64,32,30.72,30.19,3,0,0,0.00
2014-1-1,38,27,17,15,4,-10,76,44,14,30.47,30.10,9,0,0,0.00
2014-1-2,35,20,8,6,-1,-7,64,42,20,30.70,30.40,0,0,0,0.00